KPDX/PDX METAR and TAF weather

Enter ICAO airport designator
Station Type Date Time Source
KPDX METAR 2024/07/13 01:53 UTC NOAA

KPDX 130153Z 31012KT 10SM CLR 30/14 A2994 RMK AO2 SLP138 T03000144


Station Type Date Time Source
KPDX Decoded METAR 2024/07/13 01:53 UTC NOAA

PORTLAND INTERNATIONAL AIRPORT, OR, United States (KPDX) 45-35N 122-36W 7M
Jul 12, 2024 - 09:53 PM EDT / 2024.07.13 0153 UTC
Wind: from the NW (310 degrees) at 14 MPH (12 KT):0
Visibility: 10 mile(s):0
Sky conditions: clear
Temperature: 86.0 F (30.0 C)
Dew Point: 57.9 F (14.4 C)
Relative Humidity: 38%
Pressure (altimeter): 29.94 in. Hg (1013 hPa)
ob: KPDX 130153Z 31012KT 10SM CLR 30/14 A2994 RMK AO2 SLP138 T03000144
cycle: 2

Station Type Date Time Source
KPDX TAF 2024/07/12 21:33 UTC NOAA